createdAt,value
2022-12-09T00:02:03.021Z,9.20
2022-12-09T00:04:30.086Z,9.77
2022-12-09T00:06:56.570Z,8.15
2022-12-09T00:09:23.260Z,9.90
2022-12-09T00:11:49.945Z,9.48
2022-12-09T00:14:16.262Z,10.38
2022-12-09T00:16:43.149Z,13.20
2022-12-09T00:19:09.758Z,7.50
2022-12-09T00:21:36.785Z,10.57
2022-12-09T00:24:06.979Z,10.13
2022-12-09T00:26:34.085Z,9.32
2022-12-09T00:29:01.583Z,10.15
2022-12-09T00:31:32.389Z,9.65
2022-12-09T00:34:02.138Z,13.02
2022-12-09T00:36:29.506Z,10.95
2022-12-09T00:38:58.055Z,10.27
2022-12-09T00:41:25.272Z,10.73
2022-12-09T00:43:52.140Z,8.90
2022-12-09T00:46:19.562Z,11.73
2022-12-09T00:48:46.436Z,11.50
2022-12-09T00:51:18.108Z,12.82
2022-12-09T00:53:45.375Z,11.77
2022-12-09T00:56:12.082Z,13.05
2022-12-09T00:58:38.730Z,11.43
2022-12-09T01:01:05.892Z,10.63
2022-12-09T01:03:33.395Z,10.13
2022-12-09T01:06:00.256Z,10.35
2022-12-09T01:08:27.320Z,9.27
2022-12-09T01:10:53.776Z,9.10
2022-12-09T01:13:20.128Z,10.88
2022-12-09T01:15:46.977Z,9.75
2022-12-09T01:18:13.622Z,12.88
2022-12-09T01:20:40.408Z,16.17
2022-12-09T01:23:07.115Z,9.45
2022-12-09T01:25:33.479Z,8.43
2022-12-09T01:27:59.874Z,11.55
2022-12-09T01:30:26.579Z,11.02
2022-12-09T01:32:53.294Z,14.52
2022-12-09T01:35:19.897Z,16.85
2022-12-09T01:37:46.814Z,12.55
2022-12-09T01:40:16.805Z,11.07
2022-12-09T01:42:43.521Z,12.68
2022-12-09T01:45:40.892Z,18.10
2022-12-09T01:48:14.252Z,19.17
2022-12-09T01:50:49.579Z,23.60
2022-12-09T01:53:18.266Z,14.55
2022-12-09T01:55:45.724Z,16.27
2022-12-09T01:58:12.865Z,18.98
2022-12-09T02:00:39.363Z,18.38
2022-12-09T02:03:07.238Z,18.70
2022-12-09T02:05:35.075Z,14.60
2022-12-09T02:08:01.492Z,19.00
2022-12-09T02:10:28.646Z,15.38
2022-12-09T02:13:20.323Z,13.20
2022-12-09T02:15:59.109Z,10.25
2022-12-09T02:18:36.877Z,19.10
2022-12-09T02:21:18.258Z,16.63
2022-12-09T02:23:54.222Z,15.98
2022-12-09T02:26:39.205Z,17.08
2022-12-09T02:29:17.125Z,20.77
2022-12-09T02:32:01.391Z,18.40
2022-12-09T02:34:33.002Z,13.60
2022-12-09T02:37:08.556Z,19.80
2022-12-09T02:39:48.353Z,16.70
2022-12-09T02:42:17.346Z,15.05
2022-12-09T02:44:47.759Z,15.10
2022-12-09T02:47:18.938Z,13.77
2022-12-09T02:49:48.581Z,11.60
2022-12-09T02:52:15.581Z,16.17
2022-12-09T02:54:43.998Z,14.35
2022-12-09T02:57:16.171Z,16.17
2022-12-09T02:59:42.652Z,16.55
2022-12-09T03:02:21.958Z,16.20
2022-12-09T03:04:59.214Z,10.27
2022-12-09T03:07:39.061Z,18.13
2022-12-09T03:10:16.031Z,13.02
2022-12-09T03:12:52.345Z,14.20
2022-12-09T03:15:25.807Z,13.13
2022-12-09T03:17:55.575Z,12.13
2022-12-09T03:20:30.402Z,16.70
2022-12-09T03:23:01.405Z,16.50
2022-12-09T03:25:38.410Z,13.50
2022-12-09T03:28:21.355Z,16.92
2022-12-09T03:30:48.506Z,13.80
2022-12-09T03:33:18.307Z,16.27
2022-12-09T03:35:54.215Z,13.25
2022-12-09T03:38:22.845Z,16.77
2022-12-09T03:41:03.410Z,14.75
2022-12-09T03:43:35.281Z,16.77
2022-12-09T03:46:01.990Z,15.32
2022-12-09T03:48:29.867Z,17.42
2022-12-09T03:51:10.538Z,15.23
2022-12-09T03:53:49.286Z,15.13
2022-12-09T03:56:21.773Z,12.52
2022-12-09T03:58:52.168Z,12.52
2022-12-09T04:01:19.959Z,12.05
2022-12-09T04:03:51.782Z,10.70
2022-12-09T04:06:19.589Z,11.32
2022-12-09T04:08:46.433Z,14.18
2022-12-09T04:11:13.086Z,17.20
2022-12-09T04:13:40.033Z,17.55
2022-12-09T04:16:06.608Z,14.80
2022-12-09T04:18:33.106Z,14.30
2022-12-09T04:21:00.253Z,12.02
2022-12-09T04:23:26.824Z,8.50
2022-12-09T04:25:53.165Z,14.10
2022-12-09T04:28:20.430Z,11.07
2022-12-09T04:30:47.729Z,12.18
2022-12-09T04:33:14.235Z,13.13
2022-12-09T04:35:43.076Z,12.90
2022-12-09T04:38:09.587Z,12.02
2022-12-09T04:40:38.090Z,15.95
2022-12-09T04:43:05.138Z,15.63
2022-12-09T04:45:31.874Z,17.00
2022-12-09T04:47:59.514Z,14.65
2022-12-09T04:50:26.833Z,19.52
2022-12-09T04:52:53.453Z,14.23
2022-12-09T04:55:19.904Z,19.23
2022-12-09T04:57:46.771Z,22.50
2022-12-09T05:00:14.457Z,21.77
2022-12-09T05:02:41.155Z,15.93
2022-12-09T05:05:09.344Z,18.20
2022-12-09T05:07:36.640Z,17.92
2022-12-09T05:10:03.948Z,14.60
2022-12-09T05:12:33.508Z,18.35
2022-12-09T05:15:00.827Z,19.33
2022-12-09T05:17:27.593Z,20.17
2022-12-09T05:19:54.233Z,19.20
2022-12-09T05:22:21.163Z,16.60
2022-12-09T05:24:47.687Z,21.65
2022-12-09T05:27:15.537Z,19.48
2022-12-09T05:29:42.517Z,15.20
2022-12-09T05:32:09.744Z,23.05
2022-12-09T05:34:36.620Z,17.08
2022-12-09T05:37:03.737Z,17.73
2022-12-09T05:39:30.389Z,22.77
2022-12-09T05:41:57.088Z,19.70
2022-12-09T05:44:23.917Z,24.13
2022-12-09T05:46:50.619Z,19.88
2022-12-09T05:49:17.177Z,24.38
2022-12-09T05:51:44.352Z,26.88
2022-12-09T05:54:11.166Z,30.70
2022-12-09T05:56:39.478Z,30.52
2022-12-09T05:59:10.375Z,20.65
2022-12-09T06:01:37.081Z,32.70
2022-12-09T06:04:03.914Z,23.55
2022-12-09T06:06:32.394Z,35.97
2022-12-09T06:09:01.814Z,20.15
2022-12-09T06:11:30.168Z,33.45
2022-12-09T06:13:57.710Z,49.97
2022-12-09T06:16:25.013Z,19.58
2022-12-09T06:18:51.823Z,41.50
2022-12-09T06:21:20.912Z,36.10
2022-12-09T06:23:49.196Z,35.50
2022-12-09T06:26:24.567Z,51.85
2022-12-09T06:31:18.370Z,28.67
2022-12-09T06:33:55.278Z,32.65
2022-12-09T06:36:22.886Z,41.47
2022-12-09T06:38:50.145Z,46.47
2022-12-09T06:41:17.059Z,38.45
2022-12-09T06:43:44.260Z,43.10
2022-12-09T06:46:14.636Z,37.22
2022-12-09T06:48:41.968Z,29.45
2022-12-09T06:51:08.917Z,44.35
2022-12-09T06:53:36.110Z,42.60
2022-12-09T06:56:09.701Z,36.00
2022-12-09T06:58:39.143Z,42.22
2022-12-09T07:01:11.429Z,35.53
2022-12-09T07:03:38.429Z,38.30
2022-12-09T07:06:05.531Z,38.50
2022-12-09T07:08:32.220Z,30.63
2022-12-09T07:10:58.900Z,39.75
2022-12-09T07:13:26.474Z,43.95
2022-12-09T07:15:53.162Z,34.13
2022-12-09T07:18:20.044Z,33.95
2022-12-09T07:20:47.668Z,41.35
2022-12-09T07:23:14.442Z,45.50
2022-12-09T07:25:40.863Z,45.08
2022-12-09T07:28:08.083Z,47.90
2022-12-09T07:30:37.352Z,58.15
2022-12-09T07:33:04.033Z,43.70
2022-12-09T07:35:30.974Z,45.85
2022-12-09T07:37:57.903Z,30.30
2022-12-09T07:40:25.173Z,46.95
2022-12-09T07:42:54.886Z,40.42
2022-12-09T07:45:26.221Z,34.60
2022-12-09T07:47:53.016Z,39.97
2022-12-09T07:50:19.811Z,34.72
2022-12-09T07:52:46.895Z,44.55
2022-12-09T07:55:14.500Z,44.83
2022-12-09T07:57:41.309Z,29.35
2022-12-09T08:00:08.765Z,54.10
2022-12-09T08:02:36.006Z,41.05
2022-12-09T08:05:03.518Z,41.17
2022-12-09T08:07:30.601Z,46.47
2022-12-09T08:09:57.502Z,33.80
2022-12-09T08:12:24.880Z,24.85
2022-12-09T08:14:51.366Z,38.83
2022-12-09T08:17:18.559Z,42.40
2022-12-09T08:19:45.919Z,48.03
2022-12-09T08:22:12.375Z,55.63
2022-12-09T08:24:39.148Z,34.00
2022-12-09T08:27:06.074Z,50.40
2022-12-09T08:29:32.940Z,56.63
2022-12-09T08:31:59.952Z,52.03
2022-12-09T08:34:27.033Z,39.90
2022-12-09T08:36:58.732Z,50.47
2022-12-09T08:39:28.376Z,39.28
2022-12-09T08:41:55.721Z,50.30
2022-12-09T08:44:23.462Z,67.60
2022-12-09T08:46:52.024Z,48.45
2022-12-09T08:49:22.656Z,53.72
2022-12-09T08:51:51.860Z,50.90
2022-12-09T08:54:19.298Z,39.53
2022-12-09T08:56:49.308Z,48.13
2022-12-09T08:59:16.975Z,41.55
2022-12-09T09:01:44.051Z,57.25
2022-12-09T09:04:13.550Z,51.22
2022-12-09T09:06:42.459Z,30.98
2022-12-09T09:09:11.753Z,59.05
2022-12-09T09:11:39.671Z,55.42
2022-12-09T09:14:08.637Z,33.78
2022-12-09T09:16:35.666Z,33.03
2022-12-09T09:19:06.945Z,28.15
2022-12-09T09:21:34.733Z,36.70
2022-12-09T09:24:01.550Z,37.40
2022-12-09T09:26:28.903Z,34.10
2022-12-09T09:28:57.969Z,32.10
2022-12-09T09:31:25.356Z,29.25
2022-12-09T09:33:53.170Z,34.40
2022-12-09T09:36:24.884Z,32.08
2022-12-09T09:38:53.911Z,15.20
2022-12-09T09:41:28.084Z,22.13
2022-12-09T09:43:57.412Z,38.03
2022-12-09T09:46:42.410Z,34.28
2022-12-09T09:49:17.322Z,33.50
2022-12-09T09:51:44.023Z,21.92
2022-12-09T09:54:13.971Z,16.95
2022-12-09T09:56:51.917Z,35.08
2022-12-09T09:59:34.895Z,34.97
2022-12-09T10:02:30.876Z,32.92
2022-12-09T10:05:17.901Z,18.27
2022-12-09T10:07:51.568Z,31.33
2022-12-09T10:10:43.814Z,37.85
2022-12-09T10:13:54.953Z,37.78
2022-12-09T10:16:33.058Z,32.00
2022-12-09T10:19:09.011Z,47.88
2022-12-09T10:21:41.064Z,33.20
2022-12-09T10:24:26.715Z,51.47
2022-12-09T10:29:51.404Z,32.58
2022-12-09T10:32:20.527Z,48.00
2022-12-09T10:34:48.776Z,36.85
2022-12-09T10:37:36.865Z,50.75
2022-12-09T10:40:21.562Z,26.35
2022-12-09T10:43:11.756Z,43.63
2022-12-09T10:46:17.206Z,46.28
2022-12-09T10:48:46.558Z,30.83
2022-12-09T10:51:26.344Z,44.05
2022-12-09T10:54:01.333Z,43.95
2022-12-09T10:56:35.009Z,43.42
2022-12-09T10:59:13.856Z,50.47
2022-12-09T11:01:53.848Z,42.47
2022-12-09T11:04:37.489Z,25.90
2022-12-09T11:07:13.576Z,29.27
2022-12-09T11:10:04.425Z,36.40
2022-12-09T11:12:41.052Z,42.35
2022-12-09T11:15:28.798Z,33.10
2022-12-09T11:18:08.125Z,30.77
2022-12-09T11:20:35.931Z,39.65
2022-12-09T11:23:16.098Z,43.53
2022-12-09T11:25:59.412Z,38.47
2022-12-09T11:28:34.428Z,35.40
2022-12-09T11:33:55.480Z,15.70
2022-12-09T11:36:35.365Z,32.88
2022-12-09T11:39:15.385Z,30.00
2022-12-09T11:42:07.364Z,27.63
2022-12-09T11:44:38.170Z,28.67
2022-12-09T11:47:22.228Z,29.67
2022-12-09T11:49:53.616Z,33.50
2022-12-09T11:52:19.947Z,35.83
2022-12-09T11:54:59.190Z,30.08
2022-12-09T11:57:35.292Z,30.55
2022-12-09T12:00:07.582Z,22.10
2022-12-09T12:02:40.585Z,32.70
2022-12-09T12:05:16.908Z,33.65
2022-12-09T12:07:52.460Z,29.92
2022-12-09T12:10:40.417Z,30.63
2022-12-09T12:13:23.783Z,31.05
2022-12-09T12:16:11.002Z,41.63
2022-12-09T12:18:56.706Z,27.23
2022-12-09T12:21:47.381Z,30.83
2022-12-09T12:24:22.246Z,17.20
2022-12-09T12:27:34.342Z,28.15
2022-12-09T12:30:15.671Z,33.63
2022-12-09T12:34:00.273Z,31.25
2022-12-09T12:36:12.047Z,32.50
2022-12-09T12:39:03.013Z,31.85
2022-12-09T12:42:03.873Z,32.47
2022-12-09T12:45:04.552Z,29.55
2022-12-09T12:47:44.259Z,36.63
2022-12-09T12:50:57.961Z,31.63
2022-12-09T12:53:39.012Z,36.17
2022-12-09T12:56:07.507Z,36.08
2022-12-09T12:58:43.384Z,31.42
2022-12-09T13:01:39.206Z,37.92
2022-12-09T13:04:24.146Z,27.92
2022-12-09T13:07:05.408Z,37.33
2022-12-09T13:09:41.430Z,36.42
2022-12-09T13:12:45.361Z,35.58
2022-12-09T13:15:18.213Z,34.67
2022-12-09T13:17:46.825Z,30.30
2022-12-09T13:20:20.598Z,33.72
2022-12-09T13:22:52.949Z,32.00
2022-12-09T13:25:45.966Z,37.75
2022-12-09T13:28:28.383Z,37.90
2022-12-09T13:30:59.250Z,32.25
2022-12-09T13:33:48.614Z,28.10
2022-12-09T13:36:36.699Z,24.20
2022-12-09T13:39:03.931Z,29.63
2022-12-09T13:41:30.201Z,29.17
2022-12-09T13:44:12.354Z,35.25
2022-12-09T13:46:39.700Z,24.75
2022-12-09T13:49:21.162Z,27.05
2022-12-09T13:51:52.803Z,23.70
2022-12-09T13:54:22.814Z,28.42
2022-12-09T13:57:20.456Z,29.73
2022-12-09T13:59:57.806Z,26.48
2022-12-09T14:02:42.647Z,23.13
2022-12-09T14:05:15.673Z,28.52
2022-12-09T14:07:46.259Z,28.75
2022-12-09T14:10:35.156Z,18.48
2022-12-09T14:13:22.406Z,27.70
2022-12-09T14:16:27.173Z,28.02
2022-12-09T14:18:53.939Z,32.10
2022-12-09T14:21:30.171Z,21.48
2022-12-09T14:24:08.951Z,30.52
2022-12-09T14:26:36.934Z,25.20
2022-12-09T14:29:04.254Z,28.10
2022-12-09T14:32:03.522Z,26.75
2022-12-09T14:34:34.255Z,24.73
2022-12-09T14:37:27.495Z,30.40
2022-12-09T14:40:00.945Z,28.67
2022-12-09T14:42:41.272Z,29.15
2022-12-09T14:45:36.743Z,35.85
2022-12-09T14:48:15.421Z,32.38
2022-12-09T14:50:41.983Z,23.48
2022-12-09T14:53:25.113Z,30.92
2022-12-09T14:55:51.710Z,27.73
2022-12-09T14:58:22.913Z,31.25
2022-12-09T15:01:00.073Z,25.83
2022-12-09T15:03:39.606Z,35.58
2022-12-09T15:06:16.694Z,24.52
2022-12-09T15:08:43.401Z,31.25
2022-12-09T15:11:19.460Z,33.05
2022-12-09T15:13:49.141Z,34.08
2022-12-09T15:16:19.743Z,34.28
2022-12-09T15:18:46.848Z,33.20
2022-12-09T15:21:29.439Z,37.05
2022-12-09T15:23:56.220Z,36.72
2022-12-09T15:26:26.488Z,36.17
2022-12-09T15:28:56.381Z,29.85
2022-12-09T15:31:28.233Z,35.15
2022-12-09T15:34:11.661Z,31.20
2022-12-09T15:36:49.624Z,30.58
2022-12-09T15:39:25.754Z,28.20
2022-12-09T15:42:08.795Z,32.33
2022-12-09T15:44:53.219Z,24.73
2022-12-09T15:47:26.185Z,25.20
2022-12-09T15:49:57.276Z,26.77
2022-12-09T15:52:30.871Z,27.98
2022-12-09T15:54:59.912Z,26.30
2022-12-09T15:57:28.159Z,31.30
2022-12-09T15:59:58.808Z,39.90
2022-12-09T16:02:28.843Z,25.80
2022-12-09T16:05:00.752Z,25.02
2022-12-09T16:07:28.347Z,26.23
2022-12-09T16:10:02.387Z,30.73
2022-12-09T16:12:32.845Z,28.10
2022-12-09T16:14:59.423Z,28.48
2022-12-09T16:17:50.675Z,25.38
2022-12-09T16:20:35.036Z,28.98
2022-12-09T16:23:03.759Z,27.33
2022-12-09T16:25:37.521Z,29.70
2022-12-09T16:28:06.271Z,33.38
2022-12-09T16:30:43.569Z,27.83
2022-12-09T16:33:21.892Z,28.55
2022-12-09T16:36:05.987Z,26.80
2022-12-09T16:38:37.305Z,29.30
2022-12-09T16:41:09.830Z,48.42
2022-12-09T16:43:36.967Z,34.40
2022-12-09T16:46:12.351Z,27.92
2022-12-09T16:48:39.102Z,25.83
2022-12-09T16:51:17.587Z,28.38
2022-12-09T16:53:47.006Z,27.98
2022-12-09T16:56:28.545Z,32.92
2022-12-09T16:58:55.922Z,25.38
2022-12-09T17:01:35.127Z,30.25
2022-12-09T17:04:05.277Z,22.40
2022-12-09T17:06:31.923Z,24.10
2022-12-09T17:08:58.274Z,25.80
2022-12-09T17:11:25.111Z,29.38
2022-12-09T17:13:51.719Z,27.83
2022-12-09T17:16:21.712Z,33.55
2022-12-09T17:18:49.480Z,29.67
2022-12-09T17:21:16.672Z,23.88
2022-12-09T17:23:44.096Z,27.73
2022-12-09T17:26:13.281Z,26.58
2022-12-09T17:28:41.095Z,30.33
2022-12-09T17:31:20.424Z,25.98
2022-12-09T17:33:47.207Z,29.90
2022-12-09T17:36:14.982Z,28.92
2022-12-09T17:38:42.219Z,29.30
2022-12-09T17:41:11.306Z,32.20
2022-12-09T17:43:37.654Z,30.90
2022-12-09T17:46:06.296Z,32.97
2022-12-09T17:48:34.869Z,31.02
2022-12-09T17:51:07.370Z,30.95
2022-12-09T17:53:41.925Z,29.30
2022-12-09T17:56:15.966Z,29.65
2022-12-09T17:58:43.231Z,30.80
2022-12-09T18:01:21.260Z,33.40
2022-12-09T18:03:57.262Z,27.77
2022-12-09T18:06:27.046Z,31.90
2022-12-09T18:08:54.817Z,27.40
2022-12-09T18:11:22.263Z,30.30
2022-12-09T18:13:49.861Z,27.42
2022-12-09T18:16:16.606Z,32.30
2022-12-09T18:18:43.715Z,30.90
2022-12-09T18:21:15.691Z,37.15
2022-12-09T18:23:43.276Z,31.98
2022-12-09T18:26:14.798Z,31.15
2022-12-09T18:28:41.270Z,31.52
2022-12-09T18:31:10.857Z,31.20
2022-12-09T18:33:38.836Z,32.63
2022-12-09T18:36:11.252Z,33.30
2022-12-09T18:38:38.749Z,36.92
2022-12-09T18:41:11.554Z,29.02
2022-12-09T18:43:40.065Z,34.10
2022-12-09T18:46:10.790Z,34.20
2022-12-09T18:48:38.678Z,32.40
2022-12-09T18:51:08.536Z,33.60
2022-12-09T18:53:34.973Z,30.05
2022-12-09T18:56:05.937Z,31.55
2022-12-09T18:59:04.291Z,32.00
2022-12-09T19:01:30.409Z,31.45
2022-12-09T19:03:59.901Z,27.55
2022-12-09T19:06:34.777Z,29.73
2022-12-09T19:09:04.722Z,29.52
2022-12-09T19:11:33.957Z,30.63
2022-12-09T19:14:00.790Z,30.45
2022-12-09T19:16:29.813Z,35.22
2022-12-09T19:18:57.435Z,30.98
2022-12-09T19:21:25.714Z,31.60
2022-12-09T19:23:54.443Z,31.27
2022-12-09T19:26:23.532Z,25.75
2022-12-09T19:28:53.011Z,28.60
2022-12-09T19:31:29.092Z,25.55
2022-12-09T19:34:00.111Z,26.88
2022-12-09T19:36:28.610Z,25.17
2022-12-09T19:38:55.344Z,26.50
2022-12-09T19:41:21.686Z,36.25
2022-12-09T19:43:48.410Z,30.15
2022-12-09T19:46:15.571Z,35.83
2022-12-09T19:48:47.322Z,26.55
2022-12-09T19:51:16.805Z,30.50
2022-12-09T19:53:43.703Z,27.73
2022-12-09T19:56:15.765Z,26.90
2022-12-09T19:58:43.646Z,28.35
2022-12-09T20:01:24.853Z,25.67
2022-12-09T20:03:56.765Z,29.88
2022-12-09T20:06:23.579Z,24.92
2022-12-09T20:08:50.614Z,32.38
2022-12-09T20:11:22.982Z,35.92
2022-12-09T20:13:50.895Z,29.52
2022-12-09T20:16:22.340Z,26.75
2022-12-09T20:18:50.905Z,30.40
2022-12-09T20:21:19.030Z,28.77
2022-12-09T20:23:46.105Z,30.85
2022-12-09T20:26:24.789Z,29.20
2022-12-09T20:28:53.138Z,32.20
2022-12-09T20:31:28.725Z,26.80
2022-12-09T20:33:57.501Z,30.55
2022-12-09T20:36:27.546Z,29.92
2022-12-09T20:38:58.354Z,31.70
2022-12-09T20:41:26.093Z,29.55
2022-12-09T20:43:56.440Z,26.15
2022-12-09T20:46:29.521Z,30.98
2022-12-09T20:48:57.187Z,30.80
2022-12-09T20:51:26.282Z,26.95
2022-12-09T20:53:53.570Z,28.27
2022-12-09T20:56:21.732Z,28.70
2022-12-09T20:58:50.861Z,27.90
2022-12-09T21:01:31.971Z,23.23
2022-12-09T21:03:59.975Z,24.80
2022-12-09T21:06:29.835Z,26.92
2022-12-09T21:08:59.994Z,33.17
2022-12-09T21:11:26.749Z,24.48
2022-12-09T21:13:57.555Z,32.78
2022-12-09T21:16:27.362Z,26.38
2022-12-09T21:18:56.628Z,31.13
2022-12-09T21:21:25.366Z,26.60
2022-12-09T21:23:54.212Z,22.98
2022-12-09T21:26:23.133Z,31.23
2022-12-09T21:28:50.365Z,27.02
2022-12-09T21:31:20.788Z,23.27
2022-12-09T21:33:49.093Z,27.55
2022-12-09T21:36:18.323Z,35.10
2022-12-09T21:38:45.190Z,28.05
2022-12-09T21:41:14.512Z,27.25
2022-12-09T21:43:41.335Z,28.90
2022-12-09T21:46:14.696Z,28.25
2022-12-09T21:48:41.508Z,32.67
2022-12-09T21:51:09.697Z,34.17
2022-12-09T21:53:36.754Z,29.38
2022-12-09T21:56:05.498Z,31.55
2022-12-09T21:58:32.934Z,31.70
2022-12-09T22:01:00.283Z,28.88
2022-12-09T22:03:26.690Z,26.80
2022-12-09T22:05:58.173Z,29.02
2022-12-09T22:08:25.305Z,22.35
2022-12-09T22:10:51.731Z,28.58
2022-12-09T22:13:18.483Z,31.10
2022-12-09T22:15:44.875Z,23.85
2022-12-09T22:18:11.713Z,26.70
2022-12-09T22:23:24.799Z,22.67
2022-12-09T22:25:51.688Z,28.35
2022-12-09T22:28:17.992Z,25.10
2022-12-09T22:30:44.325Z,25.92
2022-12-09T22:33:11.148Z,30.45
2022-12-09T22:35:37.465Z,24.80
2022-12-09T22:38:10.895Z,29.13
2022-12-09T22:40:40.175Z,30.13
2022-12-09T22:43:06.486Z,28.48
2022-12-09T22:45:35.428Z,36.42
2022-12-09T22:48:03.013Z,30.80
2022-12-09T22:50:29.388Z,27.13
2022-12-09T22:52:56.055Z,26.35
2022-12-09T22:55:22.957Z,28.73
2022-12-09T22:57:51.599Z,30.75
2022-12-09T23:00:17.994Z,28.73
2022-12-09T23:02:44.825Z,29.98
2022-12-09T23:05:11.569Z,35.15
2022-12-09T23:07:37.922Z,28.10
2022-12-09T23:10:05.312Z,30.52
2022-12-09T23:12:31.930Z,30.33
2022-12-09T23:14:58.626Z,26.95
2022-12-09T23:17:24.961Z,30.30
2022-12-09T23:19:51.603Z,28.45
2022-12-09T23:22:18.178Z,24.70
2022-12-09T23:24:44.494Z,26.38
2022-12-09T23:27:11.311Z,29.25
2022-12-09T23:29:37.933Z,25.38
2022-12-09T23:32:04.434Z,32.72
2022-12-09T23:34:31.190Z,27.92
2022-12-09T23:36:57.501Z,27.73
2022-12-09T23:39:23.816Z,28.15
2022-12-09T23:41:50.711Z,24.48
2022-12-09T23:44:18.588Z,30.15
2022-12-09T23:46:45.595Z,26.25
2022-12-09T23:49:12.755Z,31.77
2022-12-09T23:51:41.150Z,26.17
2022-12-09T23:54:09.564Z,26.60
2022-12-09T23:56:40.043Z,27.48
2022-12-09T23:59:09.057Z,22.08
